createdAt,value
2018-09-16T00:00:44.495Z,99.99
2018-09-16T00:01:44.558Z,99.99
2018-09-16T00:02:44.623Z,99.99
2018-09-16T00:03:44.691Z,99.99
2018-09-16T00:04:44.751Z,99.99
2018-09-16T00:05:44.819Z,99.99
2018-09-16T00:06:44.871Z,99.99
2018-09-16T00:07:44.938Z,99.99
2018-09-16T00:08:45.003Z,99.99
2018-09-16T00:09:45.068Z,99.99
2018-09-16T00:10:45.123Z,99.99
2018-09-16T00:11:45.187Z,99.99
2018-09-16T00:12:45.251Z,99.99
2018-09-16T00:13:45.311Z,99.99
2018-09-16T00:14:45.980Z,99.99
2018-09-16T00:15:45.440Z,99.99
2018-09-16T00:16:45.499Z,99.99
2018-09-16T00:17:45.563Z,99.99
2018-09-16T00:18:45.628Z,99.99
2018-09-16T00:19:45.693Z,99.99
2018-09-16T00:20:45.844Z,99.99
2018-09-16T00:21:45.816Z,99.99
2018-09-16T00:22:45.876Z,99.99
2018-09-16T00:23:45.943Z,99.99
2018-09-16T00:24:46.004Z,99.99
2018-09-16T00:25:46.079Z,99.99
2018-09-16T00:26:46.136Z,99.99
2018-09-16T00:27:46.192Z,99.99
2018-09-16T00:28:46.252Z,99.99
2018-09-16T00:29:46.316Z,99.99
2018-09-16T00:30:46.388Z,99.99
2018-09-16T00:31:46.452Z,99.99
2018-09-16T00:32:46.507Z,99.99
2018-09-16T00:33:46.568Z,99.99
2018-09-16T00:34:46.632Z,99.99
2018-09-16T00:35:46.700Z,99.99
2018-09-16T00:36:46.764Z,99.99
2018-09-16T00:37:46.820Z,99.99
2018-09-16T00:38:46.880Z,99.99
2018-09-16T00:39:46.999Z,99.99
2018-09-16T00:40:47.012Z,99.99
2018-09-16T00:41:47.080Z,99.99
2018-09-16T00:42:47.132Z,99.99
2018-09-16T00:43:47.196Z,99.99
2018-09-16T00:44:47.256Z,99.99
2018-09-16T00:45:47.328Z,99.99
2018-09-16T00:46:47.392Z,99.99
2018-09-16T00:47:47.449Z,99.99
2018-09-16T00:48:47.510Z,99.99
2018-09-16T00:49:47.573Z,99.99
2018-09-16T00:50:47.644Z,99.99
2018-09-16T00:51:47.708Z,99.99
2018-09-16T00:52:47.761Z,99.99
2018-09-16T00:53:47.821Z,99.99
2018-09-16T00:54:47.889Z,99.99
2018-09-16T00:55:47.959Z,99.99
2018-09-16T00:56:48.017Z,99.99
2018-09-16T00:57:48.073Z,99.99
2018-09-16T00:58:48.137Z,99.99
2018-09-16T00:59:48.205Z,99.99
2018-09-16T01:00:48.373Z,99.99
2018-09-16T01:01:48.325Z,99.99
2018-09-16T01:02:48.385Z,99.99
2018-09-16T01:03:48.449Z,99.99
2018-09-16T01:04:48.513Z,99.99
2018-09-16T01:05:48.585Z,99.99
2018-09-16T01:06:48.645Z,99.99
2018-09-16T01:07:48.702Z,99.99
2018-09-16T01:08:48.761Z,99.99
2018-09-16T01:09:48.826Z,99.99
2018-09-16T01:10:48.896Z,99.99
2018-09-16T01:11:48.957Z,99.99
2018-09-16T01:12:49.014Z,99.99
2018-09-16T01:13:49.077Z,99.99
2018-09-16T01:14:49.145Z,99.99
2018-09-16T01:15:49.297Z,99.99
2018-09-16T01:16:49.266Z,99.99
2018-09-16T01:17:49.326Z,99.99
2018-09-16T01:18:49.392Z,99.99
2018-09-16T01:19:49.454Z,99.99
2018-09-16T01:20:49.523Z,99.99
2018-09-16T01:21:49.585Z,99.99
2018-09-16T01:22:49.642Z,99.99
2018-09-16T01:23:49.701Z,99.99
2018-09-16T01:24:49.766Z,99.99
2018-09-16T01:25:49.834Z,99.99
2018-09-16T01:26:49.898Z,99.99
2018-09-16T01:27:49.954Z,99.99
2018-09-16T01:28:50.014Z,99.99
2018-09-16T01:29:50.082Z,99.99
2018-09-16T01:30:50.144Z,99.99
2018-09-16T01:31:50.474Z,99.99
2018-09-16T01:32:50.266Z,99.99
2018-09-16T01:33:50.327Z,99.99
2018-09-16T01:34:50.390Z,99.99
2018-09-16T01:35:50.454Z,99.99
2018-09-16T01:36:50.522Z,99.99
2018-09-16T01:37:50.582Z,99.99
2018-09-16T01:38:50.643Z,99.99
2018-09-16T01:39:50.702Z,99.99
2018-09-16T01:40:50.766Z,99.99
2018-09-16T01:41:50.834Z,99.99
2018-09-16T01:42:50.899Z,99.99
2018-09-16T01:43:50.955Z,99.99
2018-09-16T01:44:51.014Z,99.99
2018-09-16T01:45:51.078Z,99.99
2018-09-16T01:46:51.247Z,99.99
2018-09-16T01:47:51.203Z,99.99
2018-09-16T01:48:51.266Z,99.99
2018-09-16T01:49:51.326Z,99.99
2018-09-16T01:50:51.390Z,99.99
2018-09-16T01:51:51.459Z,99.99
2018-09-16T01:52:51.523Z,99.99
2018-09-16T01:53:51.579Z,99.99
2018-09-16T01:54:51.639Z,99.99
2018-09-16T01:55:51.703Z,99.99
2018-09-16T01:56:51.779Z,99.99
2018-09-16T01:57:51.835Z,99.99
2018-09-16T01:58:51.891Z,99.99
2018-09-16T01:59:51.951Z,99.99
2018-09-16T02:00:52.015Z,99.99
2018-09-16T02:01:52.279Z,99.99
2018-09-16T02:02:52.139Z,99.99
2018-09-16T02:03:52.204Z,99.99
2018-09-16T02:04:52.263Z,99.99
2018-09-16T02:05:52.327Z,99.99
2018-09-16T02:06:52.396Z,99.99
2018-09-16T02:07:52.460Z,99.99
2018-09-16T02:08:52.515Z,99.99
2018-09-16T02:09:52.576Z,99.99
2018-09-16T02:10:52.639Z,99.99
2018-09-16T02:11:52.708Z,99.99
2018-09-16T02:12:52.772Z,99.99
2018-09-16T02:13:52.828Z,99.99
2018-09-16T02:14:52.892Z,99.99
2018-09-16T02:15:52.952Z,99.99
2018-09-16T02:16:53.020Z,99.99
2018-09-16T02:17:53.084Z,99.99
2018-09-16T02:18:53.140Z,99.99
2018-09-16T02:19:53.200Z,99.99
2018-09-16T02:20:53.264Z,99.99
2018-09-16T02:21:53.332Z,99.99
2018-09-16T02:22:53.396Z,99.99
2018-09-16T02:23:53.452Z,99.99
2018-09-16T02:24:53.512Z,99.99
2018-09-16T02:25:53.576Z,99.99
2018-09-16T02:26:53.648Z,99.99
2018-09-16T02:27:53.708Z,99.99
2018-09-16T02:28:53.761Z,99.99
2018-09-16T02:29:53.824Z,99.99
2018-09-16T02:30:53.888Z,99.99
2018-09-16T02:31:53.957Z,99.99
2018-09-16T02:32:54.016Z,99.99
2018-09-16T02:33:54.078Z,99.99
2018-09-16T02:34:54.136Z,99.99
2018-09-16T02:35:54.200Z,99.99
2018-09-16T02:36:54.261Z,99.99
2018-09-16T02:37:54.429Z,99.99
2018-09-16T02:38:54.384Z,99.99
2018-09-16T02:39:54.448Z,99.99
2018-09-16T02:40:54.510Z,99.99
2018-09-16T02:41:54.572Z,99.99
2018-09-16T02:42:54.641Z,99.99
2018-09-16T02:43:54.705Z,99.99
2018-09-16T02:44:54.761Z,99.99
2018-09-16T02:45:54.821Z,99.99
2018-09-16T02:46:54.885Z,99.99
2018-09-16T02:47:55.057Z,99.99
2018-09-16T02:48:55.013Z,99.99
2018-09-16T02:49:55.070Z,99.99
2018-09-16T02:50:55.133Z,99.99
2018-09-16T02:51:55.198Z,99.99
2018-09-16T02:52:55.257Z,99.99
2018-09-16T02:53:55.409Z,99.99
2018-09-16T02:54:55.381Z,99.99
2018-09-16T02:55:55.445Z,99.99
2018-09-16T02:56:55.505Z,99.99
2018-09-16T02:57:55.570Z,99.99
2018-09-16T02:58:55.637Z,99.99
2018-09-16T02:59:55.702Z,99.99
2018-09-16T03:00:55.757Z,99.99
2018-09-16T03:01:55.817Z,99.99
2018-09-16T03:02:55.882Z,99.99
2018-09-16T03:03:55.954Z,99.99
2018-09-16T03:04:56.014Z,99.99
2018-09-16T03:05:56.072Z,99.99
2018-09-16T03:06:56.130Z,99.99
2018-09-16T03:07:56.194Z,99.99
2018-09-16T03:08:56.286Z,99.99
2018-09-16T03:09:56.317Z,99.99
2018-09-16T03:10:56.377Z,99.99
2018-09-16T03:11:56.442Z,99.99
2018-09-16T03:12:56.504Z,99.99
2018-09-16T03:13:56.574Z,99.99
2018-09-16T03:14:56.634Z,99.99
2018-09-16T03:15:56.690Z,99.99
2018-09-16T03:16:56.754Z,99.99
2018-09-16T03:17:56.815Z,99.99
2018-09-16T03:18:56.925Z,99.99
2018-09-16T03:19:56.947Z,99.99
2018-09-16T03:20:57.005Z,99.99
2018-09-16T03:21:57.065Z,99.99
2018-09-16T03:22:57.126Z,99.99
2018-09-16T03:23:57.191Z,99.99
2018-09-16T03:24:57.365Z,99.99
2018-09-16T03:25:57.315Z,99.99
2018-09-16T03:26:57.375Z,99.99
2018-09-16T03:27:57.443Z,99.99
2018-09-16T03:28:57.499Z,99.99
2018-09-16T03:29:57.571Z,99.99
2018-09-16T03:30:57.634Z,99.99
2018-09-16T03:31:57.687Z,99.99
2018-09-16T03:32:57.751Z,99.99
2018-09-16T03:33:57.811Z,99.99
2018-09-16T03:34:57.883Z,99.99
2018-09-16T03:35:57.955Z,99.99
2018-09-16T03:36:57.999Z,99.99
2018-09-16T03:37:58.060Z,99.99
2018-09-16T03:38:58.123Z,99.99
2018-09-16T03:39:58.527Z,99.99
2018-09-16T03:40:58.248Z,99.99
2018-09-16T03:41:58.311Z,99.99
2018-09-16T03:42:58.372Z,99.99
2018-09-16T03:43:58.435Z,99.99
2018-09-16T03:44:58.498Z,99.99
2018-09-16T03:45:58.580Z,99.99
2018-09-16T03:46:58.620Z,99.99
2018-09-16T03:47:58.687Z,99.99
2018-09-16T03:48:58.743Z,99.99
2018-09-16T03:49:58.809Z,99.99
2018-09-16T03:50:58.929Z,99.99
2018-09-16T03:51:58.940Z,99.99
2018-09-16T03:52:58.998Z,99.99
2018-09-16T03:53:59.055Z,99.99
2018-09-16T03:54:59.125Z,99.99
2018-09-16T03:55:59.368Z,99.99
2018-09-16T03:56:59.244Z,99.99
2018-09-16T03:57:59.304Z,99.99
2018-09-16T03:58:59.368Z,99.99
2018-09-16T03:59:59.428Z,99.99
2018-09-16T04:00:59.496Z,99.99
2018-09-16T04:01:59.561Z,99.99
2018-09-16T04:02:59.616Z,99.99
2018-09-16T04:03:59.676Z,99.99
2018-09-16T04:04:59.750Z,99.99
2018-09-16T04:05:59.808Z,99.99
2018-09-16T04:06:59.872Z,99.99
2018-09-16T04:07:59.924Z,99.99
2018-09-16T04:08:59.989Z,99.99
2018-09-16T04:10:00.049Z,99.99
2018-09-16T04:11:00.220Z,99.99
2018-09-16T04:12:00.177Z,99.99
2018-09-16T04:13:00.239Z,99.99
2018-09-16T04:14:00.447Z,99.99
2018-09-16T04:15:00.360Z,99.99
2018-09-16T04:16:00.429Z,99.99
2018-09-16T04:17:00.492Z,99.99
2018-09-16T04:18:00.549Z,99.99
2018-09-16T04:19:00.609Z,99.99
2018-09-16T04:20:00.682Z,99.99
2018-09-16T04:21:00.766Z,99.99
2018-09-16T04:22:00.801Z,99.99
2018-09-16T04:23:00.861Z,99.99
2018-09-16T04:24:00.925Z,99.99
2018-09-16T04:25:00.981Z,99.99
2018-09-16T04:26:01.050Z,99.99
2018-09-16T04:27:01.113Z,99.99
2018-09-16T04:28:01.169Z,99.99
2018-09-16T04:29:01.240Z,99.99
2018-09-16T04:30:01.294Z,99.99
2018-09-16T04:31:01.362Z,99.99
2018-09-16T04:32:01.425Z,99.99
2018-09-16T04:33:01.478Z,99.99
2018-09-16T04:34:01.541Z,99.99
2018-09-16T04:35:01.602Z,99.99
2018-09-16T04:36:01.674Z,99.99
2018-09-16T04:37:01.738Z,99.99
2018-09-16T04:38:01.793Z,99.99
2018-09-16T04:39:01.854Z,99.99
2018-09-16T04:40:01.914Z,99.99
2018-09-16T04:41:01.982Z,99.99
2018-09-16T04:42:02.046Z,99.99
2018-09-16T04:43:02.101Z,99.99
2018-09-16T04:44:02.161Z,99.99
2018-09-16T04:45:02.222Z,99.99
2018-09-16T04:46:02.555Z,99.99
2018-09-16T04:47:02.352Z,99.99
2018-09-16T04:48:02.409Z,99.99
2018-09-16T04:49:02.474Z,99.99
2018-09-16T04:50:02.605Z,99.99
2018-09-16T04:51:02.602Z,99.99
2018-09-16T04:52:02.670Z,99.99
2018-09-16T04:53:02.727Z,99.99
2018-09-16T04:54:02.789Z,99.99
2018-09-16T04:55:02.845Z,99.99
2018-09-16T04:56:02.915Z,99.99
2018-09-16T04:57:02.974Z,99.99
2018-09-16T04:58:03.030Z,99.99
2018-09-16T04:59:03.106Z,99.99
2018-09-16T05:00:03.154Z,99.99
2018-09-16T05:01:03.342Z,99.99
2018-09-16T05:02:03.281Z,99.99
2018-09-16T05:03:03.342Z,99.99
2018-09-16T05:04:03.402Z,99.99
2018-09-16T05:05:03.466Z,99.99
2018-09-16T05:06:03.535Z,99.99
2018-09-16T05:07:03.595Z,99.99
2018-09-16T05:08:03.651Z,99.99
2018-09-16T05:09:03.714Z,99.99
2018-09-16T05:10:03.774Z,99.99
2018-09-16T05:11:03.846Z,99.99
2018-09-16T05:12:03.907Z,99.99
2018-09-16T05:13:03.962Z,99.99
2018-09-16T05:14:04.023Z,99.99
2018-09-16T05:15:04.090Z,99.99
2018-09-16T05:16:04.151Z,99.99
2018-09-16T05:17:04.483Z,99.99
2018-09-16T05:18:04.276Z,99.99
2018-09-16T05:19:04.335Z,99.99
2018-09-16T05:20:04.395Z,99.99
2018-09-16T05:21:04.459Z,99.99
2018-09-16T05:22:04.527Z,99.99
2018-09-16T05:23:04.588Z,99.99
2018-09-16T05:24:04.643Z,99.99
2018-09-16T05:25:04.711Z,99.99
2018-09-16T05:26:04.767Z,99.99
2018-09-16T05:27:04.835Z,99.99
2018-09-16T05:28:04.899Z,99.99
2018-09-16T05:29:04.951Z,99.99
2018-09-16T05:30:05.015Z,99.99
2018-09-16T05:31:05.083Z,99.99
2018-09-16T05:32:05.407Z,99.99
2018-09-16T05:33:05.200Z,99.99
2018-09-16T05:34:05.263Z,99.99
2018-09-16T05:35:05.327Z,99.99
2018-09-16T05:36:05.391Z,99.99
2018-09-16T05:37:05.456Z,99.99
2018-09-16T05:38:05.519Z,99.99
2018-09-16T05:39:05.576Z,99.99
2018-09-16T05:40:05.635Z,99.99
2018-09-16T05:41:05.754Z,99.99
2018-09-16T05:42:05.768Z,99.99
2018-09-16T05:43:05.831Z,99.99
2018-09-16T05:44:05.884Z,99.99
2018-09-16T05:45:05.944Z,99.99
2018-09-16T05:46:06.008Z,99.99
2018-09-16T05:47:06.164Z,99.99
2018-09-16T05:48:06.134Z,99.99
2018-09-16T05:49:06.196Z,99.99
2018-09-16T05:50:06.256Z,99.99
2018-09-16T05:51:06.324Z,99.99
2018-09-16T05:52:06.388Z,99.99
2018-09-16T05:53:06.485Z,99.99
2018-09-16T05:54:06.504Z,99.99
2018-09-16T05:55:06.568Z,99.99
2018-09-16T05:56:06.628Z,99.99
2018-09-16T05:57:06.696Z,99.99
2018-09-16T05:58:06.765Z,99.99
2018-09-16T05:59:06.824Z,99.99
2018-09-16T06:00:06.876Z,99.99
2018-09-16T06:01:06.940Z,99.99
2018-09-16T06:02:07.009Z,99.99
2018-09-16T06:03:07.073Z,99.99
2018-09-16T06:04:07.130Z,99.99
2018-09-16T06:05:07.254Z,99.99
2018-09-16T06:06:07.249Z,99.99
2018-09-16T06:07:07.313Z,99.99
2018-09-16T06:08:07.569Z,99.99
2018-09-16T06:09:07.437Z,99.99
2018-09-16T06:10:07.505Z,99.99
2018-09-16T06:11:07.561Z,99.99
2018-09-16T06:12:07.629Z,99.99
2018-09-16T06:13:07.693Z,99.99
2018-09-16T06:14:07.753Z,99.99
2018-09-16T06:15:07.810Z,99.99
2018-09-16T06:16:07.899Z,99.99
2018-09-16T06:17:07.933Z,99.99
2018-09-16T06:18:08.005Z,99.99
2018-09-16T06:19:08.066Z,99.99
2018-09-16T06:20:08.166Z,99.99
2018-09-16T06:21:08.185Z,99.99
2018-09-16T06:22:08.246Z,99.99
2018-09-16T06:23:08.314Z,99.99
2018-09-16T06:24:08.586Z,99.99
2018-09-16T06:25:08.433Z,99.99
2018-09-16T06:26:08.497Z,99.99
2018-09-16T06:27:08.557Z,99.99
2018-09-16T06:28:08.621Z,99.99
2018-09-16T06:29:08.689Z,99.99
2018-09-16T06:30:08.753Z,99.99
2018-09-16T06:31:08.810Z,99.99
2018-09-16T06:32:08.874Z,99.99
2018-09-16T06:33:08.934Z,99.99
2018-09-16T06:34:09.006Z,99.99
2018-09-16T06:35:09.066Z,99.99
2018-09-16T06:36:09.123Z,99.99
2018-09-16T06:37:09.182Z,99.99
2018-09-16T06:38:09.246Z,99.99
2018-09-16T06:39:09.326Z,99.99
2018-09-16T06:40:09.402Z,99.99
2018-09-16T06:41:09.446Z,99.99
2018-09-16T06:42:09.501Z,99.99
2018-09-16T06:43:09.558Z,99.99
2018-09-16T06:44:09.622Z,99.99
2018-09-16T06:45:09.691Z,99.99
2018-09-16T06:46:09.754Z,99.99
2018-09-16T06:47:09.810Z,99.99
2018-09-16T06:48:09.870Z,99.99
2018-09-16T06:49:09.934Z,99.99
2018-09-16T06:50:10.002Z,99.99
2018-09-16T06:51:10.066Z,99.99
2018-09-16T06:52:10.123Z,99.99
2018-09-16T06:53:10.182Z,99.99
2018-09-16T06:54:10.247Z,99.99
2018-09-16T06:55:10.447Z,99.99
2018-09-16T06:56:10.403Z,99.99
2018-09-16T06:57:10.434Z,99.99
2018-09-16T06:58:10.499Z,99.99
2018-09-16T06:59:10.562Z,99.99
2018-09-16T07:00:10.631Z,99.99
2018-09-16T07:01:10.694Z,99.99
2018-09-16T07:02:10.747Z,99.99
2018-09-16T07:03:10.815Z,99.99
2018-09-16T07:04:10.875Z,99.99
2018-09-16T07:05:10.943Z,99.99
2018-09-16T07:06:11.007Z,99.99
2018-09-16T07:07:11.063Z,99.99
2018-09-16T07:08:11.128Z,99.99
2018-09-16T07:09:11.187Z,99.99
2018-09-16T07:10:11.535Z,99.99
2018-09-16T07:11:11.312Z,99.99
2018-09-16T07:12:11.378Z,99.99
2018-09-16T07:13:11.440Z,99.99
2018-09-16T07:14:11.499Z,99.99
2018-09-16T07:15:11.615Z,99.99
2018-09-16T07:16:11.636Z,99.99
2018-09-16T07:17:11.688Z,99.71
2018-09-16T07:18:11.752Z,99.99
2018-09-16T07:19:11.816Z,99.52
2018-09-16T07:20:11.901Z,99.99
2018-09-16T07:21:11.964Z,97.90
2018-09-16T07:22:12.004Z,97.52
2018-09-16T07:23:12.069Z,98.47
2018-09-16T07:24:12.135Z,99.33
2018-09-16T07:25:12.332Z,98.33
2018-09-16T07:26:12.256Z,97.18
2018-09-16T07:27:12.367Z,95.89
2018-09-16T07:28:12.380Z,91.67
2018-09-16T07:29:12.444Z,86.88
2018-09-16T07:30:12.516Z,83.41
2018-09-16T07:31:12.581Z,78.70
2018-09-16T07:32:12.637Z,77.63
2018-09-16T07:33:12.700Z,75.65
2018-09-16T07:34:12.885Z,74.63
2018-09-16T07:35:12.848Z,73.42
2018-09-16T07:36:12.921Z,71.62
2018-09-16T07:37:12.975Z,69.48
2018-09-16T07:38:13.033Z,68.38
2018-09-16T07:39:13.103Z,68.13
2018-09-16T07:40:13.438Z,68.16
2018-09-16T07:41:13.245Z,64.98
2018-09-16T07:42:13.305Z,65.20
2018-09-16T07:43:13.373Z,64.18
2018-09-16T07:44:13.441Z,63.89
2018-09-16T07:45:13.513Z,65.14
2018-09-16T07:46:13.585Z,64.31
2018-09-16T07:47:13.647Z,61.54
2018-09-16T07:48:13.717Z,60.41
2018-09-16T07:49:13.785Z,59.73
2018-09-16T07:50:13.861Z,60.14
2018-09-16T07:51:13.933Z,59.59
2018-09-16T07:52:14.006Z,56.98
2018-09-16T07:53:14.135Z,56.88
2018-09-16T07:54:14.138Z,56.24
2018-09-16T07:55:14.317Z,56.07
2018-09-16T07:56:14.277Z,55.20
2018-09-16T07:57:14.350Z,55.30
2018-09-16T07:58:14.421Z,54.55
2018-09-16T07:59:14.493Z,53.85
2018-09-16T08:00:14.574Z,54.55
2018-09-16T08:01:14.642Z,54.06
2018-09-16T08:02:14.706Z,53.02
2018-09-16T08:03:14.780Z,53.19
2018-09-16T08:04:14.854Z,53.09
2018-09-16T08:05:14.930Z,52.34
2018-09-16T08:06:15.143Z,51.67
2018-09-16T08:07:15.089Z,52.73
2018-09-16T08:08:15.142Z,55.06
2018-09-16T08:09:15.215Z,53.92
2018-09-16T08:10:15.286Z,52.66
2018-09-16T08:11:15.522Z,52.66
2018-09-16T08:12:15.438Z,52.56
2018-09-16T08:13:15.507Z,52.11
2018-09-16T08:14:15.579Z,50.94
2018-09-16T08:15:15.654Z,51.53
2018-09-16T08:16:15.734Z,50.92
2018-09-16T08:17:15.807Z,50.92
2018-09-16T08:18:15.875Z,50.84
2018-09-16T08:19:15.946Z,50.04
2018-09-16T08:20:16.019Z,49.66
2018-09-16T08:21:16.204Z,50.82
2018-09-16T08:22:16.167Z,50.24
2018-09-16T08:23:16.238Z,49.75
2018-09-16T08:24:16.315Z,50.07
2018-09-16T08:25:16.389Z,50.36
2018-09-16T08:26:16.471Z,50.07
2018-09-16T08:27:16.543Z,50.07
2018-09-16T08:28:16.615Z,49.87
2018-09-16T08:29:16.687Z,49.85
2018-09-16T08:30:16.755Z,49.75
2018-09-16T08:31:16.836Z,49.75
2018-09-16T08:32:16.911Z,50.34
2018-09-16T08:33:16.979Z,49.87
2018-09-16T08:34:17.051Z,49.90
2018-09-16T08:35:17.127Z,49.29
2018-09-16T08:36:17.243Z,49.51
2018-09-16T08:37:17.272Z,49.29
2018-09-16T08:38:17.347Z,50.07
2018-09-16T08:39:17.419Z,50.07
2018-09-16T08:40:17.527Z,48.90
2018-09-16T08:41:17.571Z,48.71
2018-09-16T08:42:17.659Z,48.95
2018-09-16T08:43:17.716Z,50.36
2018-09-16T08:44:17.788Z,49.49
2018-09-16T08:45:17.859Z,49.32
2018-09-16T08:46:17.946Z,48.64
2018-09-16T08:47:18.015Z,48.32
2018-09-16T08:48:18.083Z,48.61
2018-09-16T08:49:18.160Z,48.25
2018-09-16T08:50:18.230Z,48.93
2018-09-16T08:51:18.392Z,49.19
2018-09-16T08:52:18.447Z,49.71
2018-09-16T08:53:18.448Z,49.41
2018-09-16T08:54:18.532Z,49.32
2018-09-16T08:55:18.600Z,49.80
2018-09-16T08:56:18.676Z,48.35
2018-09-16T08:57:18.748Z,49.22
2018-09-16T08:58:18.943Z,48.73
2018-09-16T08:59:18.888Z,49.41
2018-09-16T09:00:18.972Z,49.63
2018-09-16T09:01:19.052Z,48.27
2018-09-16T09:02:19.120Z,48.44
2018-09-16T09:03:19.184Z,48.25
2018-09-16T09:04:19.294Z,48.35
2018-09-16T09:05:19.328Z,48.44
2018-09-16T09:06:19.408Z,49.32
2018-09-16T09:07:19.481Z,48.64
2018-09-16T09:08:19.549Z,48.83
2018-09-16T09:09:19.620Z,48.25
2018-09-16T09:10:19.695Z,48.61
2018-09-16T09:11:19.781Z,49.39
2018-09-16T09:12:19.849Z,49.77
2018-09-16T09:13:19.912Z,50.07
2018-09-16T09:14:20.004Z,49.58
2018-09-16T09:15:20.063Z,49.51
2018-09-16T09:16:20.149Z,48.83
2018-09-16T09:17:20.206Z,48.03
2018-09-16T09:18:20.277Z,48.69
2018-09-16T09:19:20.348Z,49.66
2018-09-16T09:20:20.421Z,49.87
2018-09-16T09:21:20.501Z,50.53
2018-09-16T09:22:20.601Z,49.37
2018-09-16T09:23:20.648Z,49.92
2018-09-16T09:24:20.709Z,50.14
2018-09-16T09:25:20.780Z,49.85
2018-09-16T09:26:20.861Z,49.37
2018-09-16T09:27:20.933Z,50.14
2018-09-16T09:28:21.001Z,49.58
2018-09-16T09:29:21.069Z,48.78
2018-09-16T09:30:21.141Z,49.58
2018-09-16T09:31:21.246Z,49.39
2018-09-16T09:32:21.287Z,48.83
2018-09-16T09:33:21.357Z,48.64
2018-09-16T09:34:21.429Z,48.25
2018-09-16T09:35:21.501Z,48.15
2018-09-16T09:36:21.577Z,47.28
2018-09-16T09:37:21.649Z,47.01
2018-09-16T09:38:21.716Z,48.44
2018-09-16T09:39:21.790Z,48.05
2018-09-16T09:40:21.857Z,48.15
2018-09-16T09:41:21.936Z,48.54
2018-09-16T09:42:22.006Z,48.54
2018-09-16T09:43:22.070Z,48.35
2018-09-16T09:44:22.145Z,47.57
2018-09-16T09:45:22.214Z,48.61
2018-09-16T09:46:22.426Z,48.54
2018-09-16T09:47:22.362Z,48.44
2018-09-16T09:48:22.438Z,47.57
2018-09-16T09:49:22.500Z,49.51
2018-09-16T09:50:22.566Z,47.83
2018-09-16T09:51:22.654Z,48.00
2018-09-16T09:52:22.726Z,48.61
2018-09-16T09:53:22.811Z,48.80
2018-09-16T09:54:22.854Z,48.52
2018-09-16T09:55:22.922Z,48.13
2018-09-16T09:56:22.998Z,48.64
2018-09-16T09:57:23.070Z,48.15
2018-09-16T09:58:23.134Z,47.28
2018-09-16T09:59:23.249Z,48.25
2018-09-16T10:00:23.274Z,48.35
2018-09-16T10:01:23.346Z,47.86
2018-09-16T10:02:23.662Z,46.86
2018-09-16T10:03:23.486Z,46.86
2018-09-16T10:04:23.563Z,48.13
2018-09-16T10:05:23.626Z,47.93
2018-09-16T10:06:23.698Z,46.55
2018-09-16T10:07:23.774Z,48.10
2018-09-16T10:08:23.847Z,49.77
2018-09-16T10:09:23.906Z,48.88
2018-09-16T10:10:23.981Z,48.10
2018-09-16T10:11:24.062Z,48.59
2018-09-16T10:12:24.134Z,48.20
2018-09-16T10:13:24.187Z,49.27
2018-09-16T10:14:24.267Z,49.56
2018-09-16T10:15:24.333Z,48.30
2018-09-16T10:16:24.399Z,48.30
2018-09-16T10:17:24.474Z,48.20
2018-09-16T10:18:24.547Z,48.78
2018-09-16T10:19:24.609Z,48.20
2018-09-16T10:20:24.679Z,49.85
2018-09-16T10:21:24.746Z,48.49
2018-09-16T10:22:24.823Z,48.08
2018-09-16T10:23:24.891Z,48.10
2018-09-16T10:24:25.001Z,48.59
2018-09-16T10:25:25.031Z,47.91
2018-09-16T10:26:25.095Z,47.91
2018-09-16T10:27:25.259Z,47.93
2018-09-16T10:28:25.239Z,47.25
2018-09-16T10:29:25.303Z,46.96
2018-09-16T10:30:25.371Z,47.18
2018-09-16T10:31:25.443Z,45.99
2018-09-16T10:32:25.527Z,47.45
2018-09-16T10:33:25.587Z,47.25
2018-09-16T10:34:25.651Z,47.16
2018-09-16T10:35:25.719Z,48.30
2018-09-16T10:36:25.791Z,47.06
2018-09-16T10:37:25.864Z,47.06
2018-09-16T10:38:25.977Z,46.94
2018-09-16T10:39:25.995Z,46.26
2018-09-16T10:40:26.076Z,46.86
2018-09-16T10:41:26.135Z,46.84
2018-09-16T10:42:26.319Z,46.26
2018-09-16T10:43:26.275Z,48.08
2018-09-16T10:44:26.344Z,48.30
2018-09-16T10:45:26.412Z,48.10
2018-09-16T10:46:26.484Z,48.10
2018-09-16T10:47:26.559Z,48.13
2018-09-16T10:48:26.716Z,48.03
2018-09-16T10:49:26.687Z,46.77
2018-09-16T10:50:26.759Z,46.77
2018-09-16T10:51:26.833Z,47.45
2018-09-16T10:52:26.911Z,48.32
2018-09-16T10:53:26.978Z,47.86
2018-09-16T10:54:27.036Z,46.21
2018-09-16T10:55:27.108Z,45.82
2018-09-16T10:56:27.176Z,45.53
2018-09-16T10:57:27.244Z,45.70
2018-09-16T10:58:27.523Z,45.41
2018-09-16T10:59:27.384Z,45.70
2018-09-16T11:00:27.452Z,45.80
2018-09-16T11:01:27.520Z,45.02
2018-09-16T11:02:27.594Z,44.24
2018-09-16T11:03:27.676Z,45.02
2018-09-16T11:04:27.737Z,44.54
2018-09-16T11:05:27.800Z,45.89
2018-09-16T11:06:27.870Z,46.79
2018-09-16T11:07:27.940Z,44.65
2018-09-16T11:08:28.017Z,44.65
2018-09-16T11:09:28.093Z,45.12
2018-09-16T11:10:28.148Z,46.07
2018-09-16T11:11:28.216Z,46.48
2018-09-16T11:12:28.292Z,46.19
2018-09-16T11:13:28.364Z,45.80
2018-09-16T11:14:28.433Z,44.64
2018-09-16T11:15:28.496Z,45.02
2018-09-16T11:16:28.565Z,45.61
2018-09-16T11:17:28.637Z,45.78
2018-09-16T11:18:28.717Z,46.09
2018-09-16T11:19:28.781Z,44.54
2018-09-16T11:20:28.845Z,44.03
2018-09-16T11:21:28.913Z,44.71
2018-09-16T11:22:28.988Z,45.39
2018-09-16T11:23:29.061Z,45.87
2018-09-16T11:24:29.129Z,43.74
2018-09-16T11:25:29.194Z,45.20
2018-09-16T11:26:29.261Z,45.58
2018-09-16T11:27:29.333Z,46.84
2018-09-16T11:28:29.509Z,45.47
2018-09-16T11:29:29.473Z,45.17
2018-09-16T11:30:29.547Z,44.68
2018-09-16T11:31:29.613Z,46.72
2018-09-16T11:32:29.681Z,46.53
2018-09-16T11:33:29.760Z,45.10
2018-09-16T11:34:29.830Z,45.47
2018-09-16T11:35:29.935Z,44.71
2018-09-16T11:36:29.962Z,45.97
2018-09-16T11:37:30.030Z,44.78
2018-09-16T11:38:30.189Z,44.13
2018-09-16T11:39:30.169Z,46.45
2018-09-16T11:40:30.246Z,44.42
2018-09-16T11:41:30.309Z,44.13
2018-09-16T11:42:30.385Z,45.00
2018-09-16T11:43:30.454Z,45.41
2018-09-16T11:44:30.526Z,44.15
2018-09-16T11:45:30.586Z,44.15
2018-09-16T11:46:30.666Z,44.83
2018-09-16T11:47:30.726Z,44.23
2018-09-16T11:48:30.802Z,45.00
2018-09-16T11:49:30.870Z,45.58
2018-09-16T11:50:30.934Z,44.90
2018-09-16T11:51:31.025Z,45.87
2018-09-16T11:52:31.074Z,44.73
2018-09-16T11:53:31.238Z,44.92
2018-09-16T11:54:31.214Z,43.68
2018-09-16T11:55:31.282Z,43.78
2018-09-16T11:56:31.354Z,41.94
2018-09-16T11:57:31.422Z,42.43
2018-09-16T11:58:31.499Z,43.20
2018-09-16T11:59:31.566Z,43.01
2018-09-16T12:00:31.630Z,42.61
2018-09-16T12:01:31.703Z,41.64
2018-09-16T12:02:31.771Z,41.94
2018-09-16T12:03:31.846Z,42.33
2018-09-16T12:04:31.915Z,42.30
2018-09-16T12:05:31.978Z,42.23
2018-09-16T12:06:32.047Z,42.61
2018-09-16T12:07:32.127Z,42.91
2018-09-16T12:08:32.204Z,43.30
2018-09-16T12:09:32.255Z,42.71
2018-09-16T12:10:32.327Z,43.20
2018-09-16T12:11:32.395Z,42.21
2018-09-16T12:12:32.467Z,43.76
2018-09-16T12:13:32.543Z,43.86
2018-09-16T12:14:32.615Z,43.78
2018-09-16T12:15:32.675Z,43.88
2018-09-16T12:16:32.746Z,44.07
2018-09-16T12:17:32.815Z,42.64
2018-09-16T12:18:32.895Z,42.44
2018-09-16T12:19:32.959Z,44.00
2018-09-16T12:20:33.023Z,44.38
2018-09-16T12:21:33.091Z,42.13
2018-09-16T12:22:33.164Z,42.13
2018-09-16T12:23:33.327Z,42.03
2018-09-16T12:24:33.308Z,42.23
2018-09-16T12:25:33.372Z,42.33
2018-09-16T12:26:33.442Z,42.33
2018-09-16T12:27:33.511Z,43.10
2018-09-16T12:28:33.588Z,42.13
2018-09-16T12:29:33.656Z,43.71
2018-09-16T12:30:33.729Z,42.05
2018-09-16T12:31:33.788Z,42.23
2018-09-16T12:32:33.860Z,42.71
2018-09-16T12:33:33.936Z,43.68
2018-09-16T12:34:34.004Z,43.57
2018-09-16T12:35:34.068Z,43.08
2018-09-16T12:36:34.140Z,42.69
2018-09-16T12:37:34.208Z,43.59
2018-09-16T12:38:34.548Z,42.69
2018-09-16T12:39:34.348Z,42.30
2018-09-16T12:40:34.420Z,42.02
2018-09-16T12:41:34.484Z,43.57
2018-09-16T12:42:34.556Z,44.05
2018-09-16T12:43:34.684Z,43.76
2018-09-16T12:44:34.704Z,45.43
2018-09-16T12:45:34.769Z,43.68
2018-09-16T12:46:35.124Z,42.81
2018-09-16T12:47:35.009Z,43.49
2018-09-16T12:48:35.312Z,44.17
2018-09-16T12:49:35.061Z,41.94
2018-09-16T12:50:35.112Z,41.86
2018-09-16T12:51:35.181Z,41.67
2018-09-16T12:52:35.249Z,42.43
2018-09-16T12:53:35.329Z,43.68